Time,TemperatureF,DewpointF,PressureIn,WindDirection,WindDirectionDegrees,WindSpeedMPH,WindSpeedGustMPH,Humidity,HourlyPrecipIn,Conditions,Clouds,dailyrainin,SolarRadiationWatts/m^2,SoftwareType,DateUTC
2013-09-10 00:02:00,74.0,61.0,-100.00,SSE,148,5.0,9.0,65,0.00,,,0.00,69.000000,,2013-09-10 00:02:00,
2013-09-10 00:12:00,74.0,61.0,-100.00,SSE,148,5.0,9.0,65,0.00,,,0.00,69.000000,,2013-09-10 00:12:00,
2013-09-10 00:42:00,72.0,62.0,-100.00,SSE,161,3.0,9.0,72,0.00,,,0.00,2.000000,,2013-09-10 00:42:00,
2013-09-10 00:52:00,72.0,62.0,-100.00,SSE,161,3.0,9.0,72,0.00,,,0.00,2.000000,,2013-09-10 00:52:00,
2013-09-10 01:01:00,72.0,62.0,-100.00,SSE,161,3.0,9.0,72,0.00,,,0.00,2.000000,,2013-09-10 01:01:00,
2013-09-10 01:12:00,72.0,62.0,-100.00,SSE,161,3.0,9.0,72,0.00,,,0.00,2.000000,,2013-09-10 01:12:00,
2013-09-10 01:42:00,70.0,62.0,-100.00,SE,146,2.0,5.0,77,0.00,,,0.00,0.000000,,2013-09-10 01:42:00,
2013-09-10 01:53:00,70.0,62.0,-100.00,SE,146,2.0,5.0,77,0.00,,,0.00,0.000000,,2013-09-10 01:53:00,
2013-09-10 02:03:00,70.0,62.0,-100.00,SE,146,2.0,5.0,77,0.00,,,0.00,0.000000,,2013-09-10 02:03:00,
2013-09-10 02:12:00,70.0,62.0,-100.00,SE,146,2.0,5.0,77,0.00,,,0.00,0.000000,,2013-09-10 02:12:00,
2013-09-10 02:42:00,67.0,63.0,-100.00,North,357,2.0,4.0,88,0.00,,,0.00,0.000000,,2013-09-10 02:42:00,
2013-09-10 02:52:00,67.0,63.0,-100.00,North,357,2.0,4.0,88,0.00,,,0.00,0.000000,,2013-09-10 02:52:00,
2013-09-10 03:02:00,67.0,63.0,-100.00,North,357,2.0,4.0,88,0.00,,,0.00,0.000000,,2013-09-10 03:02:00,
2013-09-10 03:12:00,67.0,63.0,-100.00,North,357,2.0,4.0,88,0.00,,,0.00,0.000000,,2013-09-10 03:12:00,
2013-09-10 03:13:00,65.0,63.0,-100.00,NW,326,1.0,4.0,93,0.00,,,0.00,0.000000,,2013-09-10 03:13:00,
2013-09-10 03:44:00,65.0,63.0,-100.00,NW,326,1.0,4.0,93,0.00,,,0.00,0.000000,,2013-09-10 03:44:00,
2013-09-10 03:55:00,65.0,63.0,-100.00,NW,326,1.0,4.0,93,0.00,,,0.00,0.000000,,2013-09-10 03:55:00,
2013-09-10 04:04:00,65.0,63.0,-100.00,NW,326,1.0,4.0,93,0.00,,,0.00,0.000000,,2013-09-10 04:04:00,
2013-09-10 04:13:00,65.0,63.0,-100.00,SE,139,1.0,3.0,93,0.00,,,0.00,0.000000,,2013-09-10 04:13:00,
2013-09-10 04:43:00,65.0,63.0,-100.00,SE,139,1.0,3.0,93,0.00,,,0.00,0.000000,,2013-09-10 04:43:00,
2013-09-10 04:53:00,65.0,63.0,-100.00,SE,139,1.0,3.0,93,0.00,,,0.00,0.000000,,2013-09-10 04:53:00,
2013-09-10 05:03:00,65.0,63.0,-100.00,SE,139,1.0,3.0,93,0.00,,,0.00,0.000000,,2013-09-10 05:03:00,
2013-09-10 05:43:00,65.0,63.0,-100.00,SSW,195,2.0,5.0,92,0.00,,,0.00,0.000000,,2013-09-10 05:43:00,
2013-09-10 05:53:00,65.0,63.0,-100.00,SSW,195,2.0,5.0,92,0.00,,,0.00,0.000000,,2013-09-10 05:53:00,
2013-09-10 06:03:00,65.0,63.0,-100.00,SSW,195,2.0,5.0,92,0.00,,,0.00,0.000000,,2013-09-10 06:03:00,
2013-09-10 06:12:00,65.0,63.0,-100.00,SSW,195,2.0,5.0,92,0.00,,,0.00,0.000000,,2013-09-10 06:12:00,
2013-09-10 06:43:00,64.0,62.0,-100.00,East,80,1.0,4.0,94,0.00,,,0.00,0.000000,,2013-09-10 06:43:00,
2013-09-10 06:52:00,64.0,62.0,-100.00,East,80,1.0,4.0,94,0.00,,,0.00,0.000000,,2013-09-10 06:52:00,
2013-09-10 07:01:00,64.0,62.0,-100.00,East,80,1.0,4.0,94,0.00,,,0.00,0.000000,,2013-09-10 07:01:00,
2013-09-10 07:12:00,64.0,62.0,-100.00,East,80,1.0,4.0,94,0.00,,,0.00,0.000000,,2013-09-10 07:12:00,
2013-09-10 07:42:00,64.0,63.0,-100.00,SSE,165,2.0,5.0,97,0.00,,,0.00,0.000000,,2013-09-10 07:42:00,
2013-09-10 07:52:00,64.0,63.0,-100.00,SSE,165,2.0,5.0,97,0.00,,,0.00,0.000000,,2013-09-10 07:52:00,
2013-09-10 08:02:00,64.0,63.0,-100.00,SSE,165,2.0,5.0,97,0.00,,,0.00,0.000000,,2013-09-10 08:02:00,
2013-09-10 08:12:00,64.0,63.0,-100.00,SSE,165,2.0,5.0,97,0.00,,,0.00,0.000000,,2013-09-10 08:12:00,
2013-09-10 08:42:00,65.0,63.0,-100.00,SW,224,1.0,4.0,94,0.00,,,0.00,0.000000,,2013-09-10 08:42:00,
2013-09-10 08:52:00,65.0,63.0,-100.00,SW,224,1.0,4.0,94,0.00,,,0.00,0.000000,,2013-09-10 08:52:00,
2013-09-10 09:02:00,65.0,63.0,-100.00,SW,224,1.0,4.0,94,0.00,,,0.00,0.000000,,2013-09-10 09:02:00,
2013-09-10 09:12:00,65.0,63.0,-100.00,SW,224,1.0,4.0,94,0.00,,,0.00,0.000000,,2013-09-10 09:12:00,
2013-09-10 09:13:00,65.0,64.0,-100.00,SSW,192,2.0,4.0,95,0.00,,,0.00,0.000000,,2013-09-10 09:13:00,
2013-09-10 09:43:00,65.0,64.0,-100.00,SSW,192,2.0,4.0,95,0.00,,,0.00,0.000000,,2013-09-10 09:43:00,
2013-09-10 09:54:00,65.0,64.0,-100.00,SSW,192,2.0,4.0,95,0.00,,,0.00,0.000000,,2013-09-10 09:54:00,
2013-09-10 10:03:00,65.0,64.0,-100.00,SSW,192,2.0,4.0,95,0.00,,,0.00,0.000000,,2013-09-10 10:03:00,
2013-09-10 10:43:00,64.0,63.0,-100.00,NNE,12,2.0,4.0,95,0.00,,,0.00,0.000000,,2013-09-10 10:43:00,
2013-09-10 10:53:00,64.0,63.0,-100.00,NNE,12,2.0,4.0,95,0.00,,,0.00,0.000000,,2013-09-10 10:53:00,
2013-09-10 11:03:00,64.0,63.0,-100.00,NNE,12,2.0,4.0,95,0.00,,,0.00,0.000000,,2013-09-10 11:03:00,
2013-09-10 11:12:00,64.0,63.0,-100.00,NNE,12,2.0,4.0,95,0.00,,,0.00,0.000000,,2013-09-10 11:12:00,
2013-09-10 13:52:00,74.0,68.0,-100.00,South,180,3.0,6.0,83,-99.99,,,0.00,225.000000,,2013-09-10 13:52:00,
2013-09-10 14:02:00,74.0,68.0,-100.00,South,180,3.0,6.0,83,-99.99,,,0.00,225.000000,,2013-09-10 14:02:00,
2013-09-10 14:11:00,74.0,68.0,-100.00,South,180,3.0,6.0,83,-99.99,,,0.00,225.000000,,2013-09-10 14:11:00,
2013-09-10 14:42:00,80.0,70.0,-100.00,South,178,4.0,9.0,71,0.00,,,0.00,391.000000,,2013-09-10 14:42:00,
2013-09-10 14:52:00,80.0,70.0,-100.00,South,178,4.0,9.0,71,0.00,,,0.00,391.000000,,2013-09-10 14:52:00,
2013-09-10 15:02:00,80.0,70.0,-100.00,South,178,4.0,9.0,71,0.00,,,0.00,391.000000,,2013-09-10 15:02:00,
2013-09-10 15:12:00,80.0,70.0,-100.00,South,178,4.0,9.0,71,0.00,,,0.00,391.000000,,2013-09-10 15:12:00,
2013-09-10 15:13:00,86.0,70.0,-100.00,SSW,213,5.0,8.0,60,0.00,,,0.00,540.000000,,2013-09-10 15:13:00,
2013-09-10 15:43:00,86.0,70.0,-100.00,SSW,213,5.0,8.0,60,0.00,,,0.00,540.000000,,2013-09-10 15:43:00,
2013-09-10 15:54:00,86.0,70.0,-100.00,SSW,213,5.0,8.0,60,0.00,,,0.00,540.000000,,2013-09-10 15:54:00,
2013-09-10 16:03:00,86.0,70.0,-100.00,SSW,213,5.0,8.0,60,0.00,,,0.00,540.000000,,2013-09-10 16:03:00,
2013-09-10 16:43:00,89.0,70.0,-100.00,SW,219,6.0,11.0,54,0.00,,,0.00,668.000000,,2013-09-10 16:43:00,
2013-09-10 16:53:00,89.0,70.0,-100.00,SW,219,6.0,11.0,54,0.00,,,0.00,668.000000,,2013-09-10 16:53:00,
2013-09-10 17:03:00,89.0,70.0,-100.00,SW,219,6.0,11.0,54,0.00,,,0.00,668.000000,,2013-09-10 17:03:00,
2013-09-10 17:12:00,89.0,70.0,-100.00,SW,219,6.0,11.0,54,0.00,,,0.00,668.000000,,2013-09-10 17:12:00,
2013-09-10 17:43:00,92.0,71.0,-100.00,WSW,252,6.0,11.0,51,0.00,,,0.00,695.000000,,2013-09-10 17:43:00,
2013-09-10 17:53:00,92.0,71.0,-100.00,WSW,252,6.0,11.0,51,0.00,,,0.00,695.000000,,2013-09-10 17:53:00,
2013-09-10 18:02:00,92.0,71.0,-100.00,WSW,252,6.0,11.0,51,0.00,,,0.00,695.000000,,2013-09-10 18:02:00,
2013-09-10 18:12:00,92.0,71.0,-100.00,WSW,252,6.0,11.0,51,0.00,,,0.00,695.000000,,2013-09-10 18:12:00,
2013-09-10 18:43:00,94.0,71.0,-100.00,SW,232,5.0,13.0,48,0.00,,,0.00,698.000000,,2013-09-10 18:43:00,
2013-09-10 18:52:00,94.0,71.0,-100.00,SW,232,5.0,13.0,48,0.00,,,0.00,698.000000,,2013-09-10 18:52:00,
2013-09-10 19:02:00,94.0,71.0,-100.00,SW,232,5.0,13.0,48,0.00,,,0.00,698.000000,,2013-09-10 19:02:00,
2013-09-10 19:12:00,94.0,71.0,-100.00,SW,232,5.0,13.0,48,0.00,,,0.00,698.000000,,2013-09-10 19:12:00,
2013-09-10 19:42:00,93.0,69.0,-100.00,SW,222,5.0,15.0,46,0.00,,,0.00,610.000000,,2013-09-10 19:42:00,
2013-09-10 19:52:00,93.0,69.0,-100.00,SW,222,5.0,15.0,46,0.00,,,0.00,610.000000,,2013-09-10 19:52:00,
2013-09-10 20:02:00,93.0,69.0,-100.00,SW,222,5.0,15.0,46,0.00,,,0.00,610.000000,,2013-09-10 20:02:00,
2013-09-10 20:12:00,93.0,69.0,-100.00,SW,222,5.0,15.0,46,0.00,,,0.00,610.000000,,2013-09-10 20:12:00,
2013-09-10 20:42:00,92.0,69.0,-100.00,South,188,7.0,14.0,47,0.00,,,0.00,464.000000,,2013-09-10 20:42:00,
2013-09-10 20:52:00,92.0,69.0,-100.00,South,188,7.0,14.0,47,0.00,,,0.00,464.000000,,2013-09-10 20:52:00,
2013-09-10 21:03:00,92.0,69.0,-100.00,South,188,7.0,14.0,47,0.00,,,0.00,464.000000,,2013-09-10 21:03:00,
2013-09-10 21:11:00,92.0,69.0,-100.00,South,188,7.0,14.0,47,0.00,,,0.00,464.000000,,2013-09-10 21:11:00,
2013-09-10 21:13:00,94.0,70.0,-100.00,SW,234,4.0,10.0,46,0.00,,,0.00,377.000000,,2013-09-10 21:13:00,
2013-09-10 21:44:00,94.0,70.0,-100.00,SW,234,4.0,10.0,46,0.00,,,0.00,377.000000,,2013-09-10 21:44:00,
2013-09-10 21:54:00,94.0,70.0,-100.00,SW,234,4.0,10.0,46,0.00,,,0.00,377.000000,,2013-09-10 21:54:00,
2013-09-10 22:04:00,94.0,70.0,-100.00,SW,234,4.0,10.0,46,0.00,,,0.00,377.000000,,2013-09-10 22:04:00,
2013-09-10 22:13:00,92.0,69.0,-100.00,South,187,6.0,10.0,48,0.00,,,0.00,256.000000,,2013-09-10 22:13:00,
2013-09-10 22:42:00,92.0,69.0,-100.00,South,187,6.0,10.0,48,0.00,,,0.00,256.000000,,2013-09-10 22:42:00,
2013-09-10 22:55:00,92.0,69.0,-100.00,South,187,6.0,10.0,48,0.00,,,0.00,256.000000,,2013-09-10 22:55:00,
2013-09-10 23:03:00,92.0,69.0,-100.00,South,187,6.0,10.0,48,0.00,,,0.00,256.000000,,2013-09-10 23:03:00,
2013-09-10 23:42:00,87.0,69.0,-100.00,South,176,6.0,12.0,56,0.00,,,0.00,86.000000,,2013-09-10 23:42:00,
2013-09-10 23:53:00,87.0,69.0,-100.00,South,176,6.0,12.0,56,0.00,,,0.00,86.000000,,2013-09-10 23:53:00,